sensor_id;sensor_type;location;lat;lon;timestamp;P1;durP1;ratioP1;P2;durP2;ratioP2
16270;SDS011;8243;49.048;8.396;2023-03-14T00:01:50;1.13;;;1.00;;
16270;SDS011;8243;49.048;8.396;2023-03-14T00:04:16;1.53;;;0.87;;
16270;SDS011;8243;49.048;8.396;2023-03-14T00:06:41;2.00;;;1.00;;
16270;SDS011;8243;49.048;8.396;2023-03-14T00:09:07;0.87;;;0.87;;
16270;SDS011;8243;49.048;8.396;2023-03-14T00:11:33;2.33;;;0.90;;
16270;SDS011;8243;49.048;8.396;2023-03-14T00:13:58;1.90;;;1.00;;
16270;SDS011;8243;49.048;8.396;2023-03-14T00:16:25;2.47;;;1.43;;
16270;SDS011;8243;49.048;8.396;2023-03-14T00:18:51;1.20;;;0.90;;
16270;SDS011;8243;49.048;8.396;2023-03-14T00:21:17;0.97;;;0.90;;
16270;SDS011;8243;49.048;8.396;2023-03-14T00:23:43;1.10;;;0.83;;
16270;SDS011;8243;49.048;8.396;2023-03-14T00:26:10;1.50;;;0.77;;
16270;SDS011;8243;49.048;8.396;2023-03-14T00:28:37;1.57;;;1.10;;
16270;SDS011;8243;49.048;8.396;2023-03-14T00:31:07;0.90;;;0.90;;
16270;SDS011;8243;49.048;8.396;2023-03-14T00:33:33;1.03;;;0.87;;
16270;SDS011;8243;49.048;8.396;2023-03-14T00:36:00;0.80;;;0.80;;
16270;SDS011;8243;49.048;8.396;2023-03-14T00:38:29;1.17;;;0.70;;
16270;SDS011;8243;49.048;8.396;2023-03-14T00:40:58;0.77;;;0.77;;
16270;SDS011;8243;49.048;8.396;2023-03-14T00:43:24;0.83;;;0.70;;
16270;SDS011;8243;49.048;8.396;2023-03-14T00:45:50;1.27;;;0.80;;
16270;SDS011;8243;49.048;8.396;2023-03-14T00:48:17;1.23;;;0.80;;
16270;SDS011;8243;49.048;8.396;2023-03-14T00:50:44;0.77;;;0.70;;
16270;SDS011;8243;49.048;8.396;2023-03-14T00:53:10;1.40;;;0.70;;
16270;SDS011;8243;49.048;8.396;2023-03-14T00:55:42;0.97;;;0.80;;
16270;SDS011;8243;49.048;8.396;2023-03-14T00:58:09;1.03;;;0.70;;
16270;SDS011;8243;49.048;8.396;2023-03-14T01:00:36;0.60;;;0.60;;
16270;SDS011;8243;49.048;8.396;2023-03-14T01:03:02;0.60;;;0.60;;
16270;SDS011;8243;49.048;8.396;2023-03-14T01:05:28;1.50;;;0.80;;
16270;SDS011;8243;49.048;8.396;2023-03-14T01:07:54;1.10;;;0.70;;
16270;SDS011;8243;49.048;8.396;2023-03-14T01:10:19;0.50;;;0.50;;
16270;SDS011;8243;49.048;8.396;2023-03-14T01:12:45;1.53;;;0.90;;
16270;SDS011;8243;49.048;8.396;2023-03-14T01:15:11;1.63;;;0.70;;
16270;SDS011;8243;49.048;8.396;2023-03-14T01:17:38;0.90;;;0.90;;
16270;SDS011;8243;49.048;8.396;2023-03-14T01:20:04;0.83;;;0.83;;
16270;SDS011;8243;49.048;8.396;2023-03-14T01:22:34;1.00;;;0.90;;
16270;SDS011;8243;49.048;8.396;2023-03-14T01:25:00;1.43;;;0.60;;
16270;SDS011;8243;49.048;8.396;2023-03-14T01:27:26;0.70;;;0.70;;
16270;SDS011;8243;49.048;8.396;2023-03-14T01:29:51;1.03;;;0.83;;
16270;SDS011;8243;49.048;8.396;2023-03-14T01:32:17;1.07;;;0.97;;
16270;SDS011;8243;49.048;8.396;2023-03-14T01:34:42;1.73;;;1.00;;
16270;SDS011;8243;49.048;8.396;2023-03-14T01:37:08;2.63;;;1.10;;
16270;SDS011;8243;49.048;8.396;2023-03-14T01:39:33;2.30;;;1.00;;
16270;SDS011;8243;49.048;8.396;2023-03-14T01:42:00;1.00;;;1.00;;
16270;SDS011;8243;49.048;8.396;2023-03-14T01:44:26;1.33;;;0.93;;
16270;SDS011;8243;49.048;8.396;2023-03-14T01:46:51;1.07;;;0.90;;
16270;SDS011;8243;49.048;8.396;2023-03-14T01:49:19;0.83;;;0.80;;
16270;SDS011;8243;49.048;8.396;2023-03-14T01:54:44;1.43;;;0.63;;
16270;SDS011;8243;49.048;8.396;2023-03-14T01:59:42;1.33;;;0.90;;
16270;SDS011;8243;49.048;8.396;2023-03-14T02:02:11;0.90;;;0.90;;
16270;SDS011;8243;49.048;8.396;2023-03-14T02:04:39;1.33;;;0.90;;
16270;SDS011;8243;49.048;8.396;2023-03-14T02:09:38;1.53;;;1.10;;
16270;SDS011;8243;49.048;8.396;2023-03-14T02:12:05;1.33;;;1.10;;
16270;SDS011;8243;49.048;8.396;2023-03-14T02:14:36;2.17;;;1.10;;
16270;SDS011;8243;49.048;8.396;2023-03-14T02:17:02;1.20;;;1.00;;
16270;SDS011;8243;49.048;8.396;2023-03-14T02:19:36;1.03;;;0.97;;
16270;SDS011;8243;49.048;8.396;2023-03-14T02:22:07;1.10;;;1.00;;
16270;SDS011;8243;49.048;8.396;2023-03-14T02:24:47;1.47;;;0.83;;
16270;SDS011;8243;49.048;8.396;2023-03-14T02:27:21;1.47;;;1.00;;
16270;SDS011;8243;49.048;8.396;2023-03-14T02:32:17;1.20;;;1.10;;
16270;SDS011;8243;49.048;8.396;2023-03-14T02:34:44;1.37;;;0.90;;
16270;SDS011;8243;49.048;8.396;2023-03-14T02:37:16;1.27;;;0.97;;
16270;SDS011;8243;49.048;8.396;2023-03-14T02:39:53;0.70;;;0.70;;
16270;SDS011;8243;49.048;8.396;2023-03-14T02:42:19;0.77;;;0.67;;
16270;SDS011;8243;49.048;8.396;2023-03-14T02:44:58;1.43;;;1.00;;
16270;SDS011;8243;49.048;8.396;2023-03-14T02:57:51;1.17;;;1.00;;
16270;SDS011;8243;49.048;8.396;2023-03-14T03:00:16;1.03;;;0.90;;
16270;SDS011;8243;49.048;8.396;2023-03-14T03:02:42;2.03;;;0.90;;
16270;SDS011;8243;49.048;8.396;2023-03-14T03:05:08;1.67;;;0.90;;
16270;SDS011;8243;49.048;8.396;2023-03-14T03:07:33;1.20;;;0.80;;
16270;SDS011;8243;49.048;8.396;2023-03-14T03:09:59;1.13;;;1.03;;
16270;SDS011;8243;49.048;8.396;2023-03-14T03:12:25;1.30;;;0.70;;
16270;SDS011;8243;49.048;8.396;2023-03-14T03:14:50;1.23;;;0.87;;
16270;SDS011;8243;49.048;8.396;2023-03-14T03:17:16;1.03;;;0.70;;
16270;SDS011;8243;49.048;8.396;2023-03-14T03:19:43;2.73;;;1.00;;
16270;SDS011;8243;49.048;8.396;2023-03-14T03:22:08;2.63;;;1.10;;
16270;SDS011;8243;49.048;8.396;2023-03-14T03:24:34;3.13;;;1.10;;
16270;SDS011;8243;49.048;8.396;2023-03-14T03:27:00;1.20;;;1.10;;
16270;SDS011;8243;49.048;8.396;2023-03-14T03:29:25;3.63;;;1.40;;
16270;SDS011;8243;49.048;8.396;2023-03-14T03:31:52;2.90;;;0.87;;
16270;SDS011;8243;49.048;8.396;2023-03-14T03:34:20;2.93;;;0.70;;
16270;SDS011;8243;49.048;8.396;2023-03-14T03:36:58;2.37;;;1.00;;
16270;SDS011;8243;49.048;8.396;2023-03-14T03:39:24;2.17;;;1.00;;
16270;SDS011;8243;49.048;8.396;2023-03-14T03:41:49;1.00;;;0.80;;
16270;SDS011;8243;49.048;8.396;2023-03-14T03:44:17;5.57;;;1.73;;
16270;SDS011;8243;49.048;8.396;2023-03-14T03:46:42;1.37;;;0.80;;
16270;SDS011;8243;49.048;8.396;2023-03-14T03:49:08;4.57;;;1.27;;
16270;SDS011;8243;49.048;8.396;2023-03-14T03:51:33;3.87;;;1.33;;
16270;SDS011;8243;49.048;8.396;2023-03-14T03:53:59;3.33;;;1.27;;
16270;SDS011;8243;49.048;8.396;2023-03-14T03:56:24;2.37;;;1.10;;
16270;SDS011;8243;49.048;8.396;2023-03-14T03:58:50;1.30;;;0.90;;
16270;SDS011;8243;49.048;8.396;2023-03-14T04:01:15;3.57;;;1.40;;
16270;SDS011;8243;49.048;8.396;2023-03-14T04:03:41;2.37;;;1.10;;
16270;SDS011;8243;49.048;8.396;2023-03-14T04:06:11;1.40;;;0.80;;
16270;SDS011;8243;49.048;8.396;2023-03-14T04:08:37;3.70;;;1.30;;
16270;SDS011;8243;49.048;8.396;2023-03-14T04:11:04;1.93;;;1.30;;
16270;SDS011;8243;49.048;8.396;2023-03-14T04:13:30;2.10;;;1.20;;
16270;SDS011;8243;49.048;8.396;2023-03-14T04:15:55;2.90;;;1.10;;
16270;SDS011;8243;49.048;8.396;2023-03-14T04:18:22;3.33;;;1.30;;
16270;SDS011;8243;49.048;8.396;2023-03-14T04:20:53;2.20;;;1.00;;
16270;SDS011;8243;49.048;8.396;2023-03-14T04:23:19;3.03;;;1.10;;
16270;SDS011;8243;49.048;8.396;2023-03-14T04:25:46;1.80;;;1.10;;
16270;SDS011;8243;49.048;8.396;2023-03-14T04:28:12;3.20;;;1.20;;
16270;SDS011;8243;49.048;8.396;2023-03-14T04:30:37;2.20;;;1.27;;
16270;SDS011;8243;49.048;8.396;2023-03-14T04:33:03;4.17;;;1.10;;
16270;SDS011;8243;49.048;8.396;2023-03-14T04:35:32;4.50;;;1.40;;
16270;SDS011;8243;49.048;8.396;2023-03-14T04:37:57;2.33;;;0.97;;
16270;SDS011;8243;49.048;8.396;2023-03-14T04:40:24;2.43;;;1.13;;
16270;SDS011;8243;49.048;8.396;2023-03-14T04:42:50;3.73;;;1.10;;
16270;SDS011;8243;49.048;8.396;2023-03-14T04:45:16;2.40;;;1.17;;
16270;SDS011;8243;49.048;8.396;2023-03-14T04:47:41;1.27;;;0.90;;
16270;SDS011;8243;49.048;8.396;2023-03-14T04:50:07;3.23;;;1.00;;
16270;SDS011;8243;49.048;8.396;2023-03-14T04:52:33;3.60;;;1.20;;
16270;SDS011;8243;49.048;8.396;2023-03-14T04:54:59;3.43;;;1.20;;
16270;SDS011;8243;49.048;8.396;2023-03-14T04:57:24;1.97;;;0.93;;
16270;SDS011;8243;49.048;8.396;2023-03-14T04:59:50;3.60;;;1.00;;
16270;SDS011;8243;49.048;8.396;2023-03-14T05:02:16;3.07;;;0.97;;
16270;SDS011;8243;49.048;8.396;2023-03-14T05:04:41;3.77;;;1.00;;
16270;SDS011;8243;49.048;8.396;2023-03-14T05:07:07;4.43;;;1.20;;
16270;SDS011;8243;49.048;8.396;2023-03-14T05:09:32;4.03;;;1.27;;
16270;SDS011;8243;49.048;8.396;2023-03-14T05:11:58;3.27;;;1.23;;
16270;SDS011;8243;49.048;8.396;2023-03-14T05:14:23;4.13;;;1.17;;
16270;SDS011;8243;49.048;8.396;2023-03-14T05:16:49;1.60;;;1.00;;
16270;SDS011;8243;49.048;8.396;2023-03-14T05:19:14;2.50;;;1.40;;
16270;SDS011;8243;49.048;8.396;2023-03-14T05:21:40;3.27;;;1.30;;
16270;SDS011;8243;49.048;8.396;2023-03-14T05:24:07;3.80;;;1.27;;
16270;SDS011;8243;49.048;8.396;2023-03-14T05:26:32;3.47;;;1.50;;
16270;SDS011;8243;49.048;8.396;2023-03-14T05:28:58;3.43;;;1.00;;
16270;SDS011;8243;49.048;8.396;2023-03-14T05:31:25;2.90;;;1.67;;
16270;SDS011;8243;49.048;8.396;2023-03-14T05:33:51;3.53;;;1.03;;
16270;SDS011;8243;49.048;8.396;2023-03-14T05:36:17;2.80;;;1.00;;
16270;SDS011;8243;49.048;8.396;2023-03-14T05:38:42;3.00;;;0.80;;
16270;SDS011;8243;49.048;8.396;2023-03-14T05:41:08;3.87;;;1.00;;
16270;SDS011;8243;49.048;8.396;2023-03-14T05:43:33;3.07;;;0.90;;
16270;SDS011;8243;49.048;8.396;2023-03-14T05:45:59;1.80;;;0.97;;
16270;SDS011;8243;49.048;8.396;2023-03-14T05:48:27;1.20;;;0.90;;
16270;SDS011;8243;49.048;8.396;2023-03-14T05:50:55;2.60;;;0.90;;
16270;SDS011;8243;49.048;8.396;2023-03-14T05:53:22;2.13;;;0.73;;
16270;SDS011;8243;49.048;8.396;2023-03-14T05:55:50;1.73;;;0.80;;
16270;SDS011;8243;49.048;8.396;2023-03-14T05:58:21;1.33;;;0.93;;
16270;SDS011;8243;49.048;8.396;2023-03-14T06:00:47;1.40;;;0.60;;
16270;SDS011;8243;49.048;8.396;2023-03-14T06:03:14;2.23;;;0.67;;
16270;SDS011;8243;49.048;8.396;2023-03-14T06:05:39;2.37;;;1.07;;
16270;SDS011;8243;49.048;8.396;2023-03-14T06:08:05;2.20;;;1.00;;
16270;SDS011;8243;49.048;8.396;2023-03-14T06:10:31;2.73;;;1.37;;
16270;SDS011;8243;49.048;8.396;2023-03-14T06:13:04;2.17;;;0.90;;
16270;SDS011;8243;49.048;8.396;2023-03-14T06:15:29;1.93;;;0.90;;
16270;SDS011;8243;49.048;8.396;2023-03-14T06:17:55;2.83;;;0.80;;
16270;SDS011;8243;49.048;8.396;2023-03-14T06:23:06;1.83;;;0.70;;
16270;SDS011;8243;49.048;8.396;2023-03-14T06:25:32;1.10;;;0.80;;
16270;SDS011;8243;49.048;8.396;2023-03-14T06:27:58;1.77;;;0.80;;
16270;SDS011;8243;49.048;8.396;2023-03-14T06:30:24;2.00;;;1.10;;
16270;SDS011;8243;49.048;8.396;2023-03-14T06:32:50;1.90;;;0.97;;
16270;SDS011;8243;49.048;8.396;2023-03-14T06:35:31;3.00;;;1.00;;
16270;SDS011;8243;49.048;8.396;2023-03-14T06:37:56;1.67;;;1.00;;
16270;SDS011;8243;49.048;8.396;2023-03-14T06:40:35;2.67;;;1.30;;
16270;SDS011;8243;49.048;8.396;2023-03-14T06:43:01;4.80;;;1.00;;
16270;SDS011;8243;49.048;8.396;2023-03-14T06:45:26;1.17;;;1.00;;
16270;SDS011;8243;49.048;8.396;2023-03-14T06:47:52;3.13;;;1.10;;
16270;SDS011;8243;49.048;8.396;2023-03-14T06:50:18;2.13;;;1.30;;
16270;SDS011;8243;49.048;8.396;2023-03-14T06:52:43;2.93;;;1.00;;
16270;SDS011;8243;49.048;8.396;2023-03-14T06:55:19;7.37;;;1.30;;
16270;SDS011;8243;49.048;8.396;2023-03-14T06:57:45;3.27;;;1.00;;
16270;SDS011;8243;49.048;8.396;2023-03-14T07:03:27;3.47;;;0.90;;
16270;SDS011;8243;49.048;8.396;2023-03-14T07:05:55;1.70;;;0.80;;
16270;SDS011;8243;49.048;8.396;2023-03-14T07:08:39;2.90;;;1.80;;
16270;SDS011;8243;49.048;8.396;2023-03-14T07:11:05;3.10;;;0.80;;
16270;SDS011;8243;49.048;8.396;2023-03-14T07:13:31;2.00;;;0.90;;
16270;SDS011;8243;49.048;8.396;2023-03-14T07:15:56;1.67;;;1.07;;
16270;SDS011;8243;49.048;8.396;2023-03-14T07:18:30;2.93;;;1.17;;
16270;SDS011;8243;49.048;8.396;2023-03-14T07:20:56;1.80;;;1.00;;
16270;SDS011;8243;49.048;8.396;2023-03-14T07:23:21;0.70;;;0.70;;
16270;SDS011;8243;49.048;8.396;2023-03-14T07:25:47;3.53;;;0.87;;
16270;SDS011;8243;49.048;8.396;2023-03-14T07:28:12;0.90;;;0.70;;
16270;SDS011;8243;49.048;8.396;2023-03-14T07:30:40;2.03;;;1.00;;
16270;SDS011;8243;49.048;8.396;2023-03-14T07:33:06;1.03;;;0.70;;
16270;SDS011;8243;49.048;8.396;2023-03-14T07:35:31;1.50;;;0.80;;
16270;SDS011;8243;49.048;8.396;2023-03-14T07:37:57;1.03;;;0.73;;
16270;SDS011;8243;49.048;8.396;2023-03-14T07:43:38;0.83;;;0.73;;
16270;SDS011;8243;49.048;8.396;2023-03-14T07:46:04;1.90;;;1.10;;
16270;SDS011;8243;49.048;8.396;2023-03-14T07:48:32;2.53;;;0.80;;
16270;SDS011;8243;49.048;8.396;2023-03-14T07:50:58;1.93;;;0.80;;
16270;SDS011;8243;49.048;8.396;2023-03-14T07:56:09;1.60;;;0.67;;
16270;SDS011;8243;49.048;8.396;2023-03-14T07:58:38;1.60;;;0.70;;
16270;SDS011;8243;49.048;8.396;2023-03-14T08:01:04;1.00;;;0.70;;
16270;SDS011;8243;49.048;8.396;2023-03-14T08:03:30;3.03;;;0.63;;
16270;SDS011;8243;49.048;8.396;2023-03-14T08:05:55;1.87;;;0.73;;
16270;SDS011;8243;49.048;8.396;2023-03-14T08:08:22;2.43;;;0.80;;
16270;SDS011;8243;49.048;8.396;2023-03-14T08:10:49;2.67;;;0.63;;
16270;SDS011;8243;49.048;8.396;2023-03-14T08:13:14;0.80;;;0.50;;
16270;SDS011;8243;49.048;8.396;2023-03-14T08:15:40;1.70;;;0.70;;
16270;SDS011;8243;49.048;8.396;2023-03-14T08:18:05;1.37;;;0.67;;
16270;SDS011;8243;49.048;8.396;2023-03-14T08:20:31;2.77;;;0.77;;
16270;SDS011;8243;49.048;8.396;2023-03-14T08:22:57;1.57;;;0.70;;
16270;SDS011;8243;49.048;8.396;2023-03-14T08:25:27;1.90;;;0.63;;
16270;SDS011;8243;49.048;8.396;2023-03-14T08:27:55;1.57;;;0.53;;
16270;SDS011;8243;49.048;8.396;2023-03-14T08:30:21;1.53;;;0.50;;
16270;SDS011;8243;49.048;8.396;2023-03-14T08:32:47;0.40;;;0.40;;
16270;SDS011;8243;49.048;8.396;2023-03-14T08:35:13;1.33;;;0.50;;
16270;SDS011;8243;49.048;8.396;2023-03-14T08:37:42;2.00;;;1.33;;
16270;SDS011;8243;49.048;8.396;2023-03-14T08:40:08;0.70;;;0.63;;
16270;SDS011;8243;49.048;8.396;2023-03-14T08:42:42;0.57;;;0.57;;
16270;SDS011;8243;49.048;8.396;2023-03-14T08:45:08;0.80;;;0.80;;
16270;SDS011;8243;49.048;8.396;2023-03-14T08:47:35;0.87;;;0.73;;
16270;SDS011;8243;49.048;8.396;2023-03-14T08:50:01;1.33;;;0.70;;
16270;SDS011;8243;49.048;8.396;2023-03-14T08:52:29;2.30;;;0.70;;
16270;SDS011;8243;49.048;8.396;2023-03-14T08:54:55;0.67;;;0.60;;
16270;SDS011;8243;49.048;8.396;2023-03-14T08:57:21;0.80;;;0.70;;
16270;SDS011;8243;49.048;8.396;2023-03-14T08:59:47;1.33;;;0.80;;
16270;SDS011;8243;49.048;8.396;2023-03-14T09:02:12;1.73;;;0.70;;
16270;SDS011;8243;49.048;8.396;2023-03-14T09:04:41;1.10;;;0.40;;
16270;SDS011;8243;49.048;8.396;2023-03-14T09:07:07;1.43;;;0.47;;
16270;SDS011;8243;49.048;8.396;2023-03-14T09:09:32;2.37;;;0.63;;
16270;SDS011;8243;49.048;8.396;2023-03-14T09:11:58;0.40;;;0.40;;
16270;SDS011;8243;49.048;8.396;2023-03-14T09:14:24;0.80;;;0.50;;
16270;SDS011;8243;49.048;8.396;2023-03-14T09:16:50;0.87;;;0.70;;
16270;SDS011;8243;49.048;8.396;2023-03-14T09:19:15;2.33;;;0.70;;
16270;SDS011;8243;49.048;8.396;2023-03-14T09:21:41;1.80;;;0.63;;
16270;SDS011;8243;49.048;8.396;2023-03-14T09:24:07;2.87;;;0.90;;
16270;SDS011;8243;49.048;8.396;2023-03-14T09:26:32;0.50;;;0.50;;
16270;SDS011;8243;49.048;8.396;2023-03-14T09:28:58;0.70;;;0.70;;
16270;SDS011;8243;49.048;8.396;2023-03-14T09:31:24;1.73;;;0.77;;
16270;SDS011;8243;49.048;8.396;2023-03-14T09:33:49;1.20;;;0.60;;
16270;SDS011;8243;49.048;8.396;2023-03-14T09:36:19;0.60;;;0.60;;
16270;SDS011;8243;49.048;8.396;2023-03-14T09:38:52;0.80;;;0.80;;
16270;SDS011;8243;49.048;8.396;2023-03-14T09:41:34;0.80;;;0.60;;
16270;SDS011;8243;49.048;8.396;2023-03-14T09:44:16;1.13;;;0.43;;
16270;SDS011;8243;49.048;8.396;2023-03-14T09:46:46;1.47;;;0.60;;
16270;SDS011;8243;49.048;8.396;2023-03-14T09:51:47;0.73;;;0.60;;
16270;SDS011;8243;49.048;8.396;2023-03-14T09:54:34;3.63;;;0.83;;
16270;SDS011;8243;49.048;8.396;2023-03-14T09:57:01;0.57;;;0.57;;
16270;SDS011;8243;49.048;8.396;2023-03-14T09:59:28;0.80;;;0.80;;
16270;SDS011;8243;49.048;8.396;2023-03-14T10:01:56;0.60;;;0.60;;
16270;SDS011;8243;49.048;8.396;2023-03-14T10:04:26;1.80;;;0.60;;
16270;SDS011;8243;49.048;8.396;2023-03-14T10:06:53;0.87;;;0.50;;
16270;SDS011;8243;49.048;8.396;2023-03-14T10:09:22;0.83;;;0.60;;
16270;SDS011;8243;49.048;8.396;2023-03-14T10:11:52;1.17;;;0.90;;
16270;SDS011;8243;49.048;8.396;2023-03-14T10:14:29;2.40;;;2.10;;
16270;SDS011;8243;49.048;8.396;2023-03-14T10:16:59;1.87;;;1.73;;
16270;SDS011;8243;49.048;8.396;2023-03-14T10:19:31;1.57;;;0.80;;
16270;SDS011;8243;49.048;8.396;2023-03-14T10:21:57;0.93;;;0.83;;
16270;SDS011;8243;49.048;8.396;2023-03-14T10:24:33;0.60;;;0.60;;
16270;SDS011;8243;49.048;8.396;2023-03-14T10:27:00;0.67;;;0.67;;
16270;SDS011;8243;49.048;8.396;2023-03-14T10:29:30;2.07;;;0.67;;
16270;SDS011;8243;49.048;8.396;2023-03-14T10:32:01;0.30;;;0.30;;
16270;SDS011;8243;49.048;8.396;2023-03-14T10:34:33;3.13;;;0.67;;
16270;SDS011;8243;49.048;8.396;2023-03-14T10:45:06;0.50;;;0.50;;
16270;SDS011;8243;49.048;8.396;2023-03-14T10:47:49;0.93;;;0.70;;
16270;SDS011;8243;49.048;8.396;2023-03-14T10:52:54;0.87;;;0.70;;
16270;SDS011;8243;49.048;8.396;2023-03-14T10:55:22;0.77;;;0.40;;
16270;SDS011;8243;49.048;8.396;2023-03-14T10:57:49;1.20;;;0.50;;
16270;SDS011;8243;49.048;8.396;2023-03-14T11:00:16;0.83;;;0.50;;
16270;SDS011;8243;49.048;8.396;2023-03-14T11:02:49;1.33;;;0.70;;
16270;SDS011;8243;49.048;8.396;2023-03-14T11:05:23;0.63;;;0.50;;
16270;SDS011;8243;49.048;8.396;2023-03-14T11:07:52;0.40;;;0.40;;
16270;SDS011;8243;49.048;8.396;2023-03-14T11:10:26;0.77;;;0.57;;
16270;SDS011;8243;49.048;8.396;2023-03-14T11:13:13;0.50;;;0.50;;
16270;SDS011;8243;49.048;8.396;2023-03-14T11:21:02;0.53;;;0.53;;
16270;SDS011;8243;49.048;8.396;2023-03-14T11:23:32;1.50;;;0.80;;
16270;SDS011;8243;49.048;8.396;2023-03-14T11:28:53;0.60;;;0.60;;
16270;SDS011;8243;49.048;8.396;2023-03-14T11:31:29;0.73;;;0.70;;
16270;SDS011;8243;49.048;8.396;2023-03-14T11:34:05;0.77;;;0.77;;
16270;SDS011;8243;49.048;8.396;2023-03-14T11:36:39;0.73;;;0.73;;
16270;SDS011;8243;49.048;8.396;2023-03-14T11:39:13;0.50;;;0.50;;
16270;SDS011;8243;49.048;8.396;2023-03-14T11:42:02;1.00;;;0.90;;
16270;SDS011;8243;49.048;8.396;2023-03-14T11:44:32;0.63;;;0.60;;
16270;SDS011;8243;49.048;8.396;2023-03-14T11:47:04;3.13;;;0.93;;
16270;SDS011;8243;49.048;8.396;2023-03-14T11:49:36;1.10;;;1.00;;
16270;SDS011;8243;49.048;8.396;2023-03-14T11:52:25;1.67;;;0.90;;
16270;SDS011;8243;49.048;8.396;2023-03-14T12:00:48;2.37;;;1.07;;
16270;SDS011;8243;49.048;8.396;2023-03-14T12:03:24;1.30;;;1.03;;
16270;SDS011;8243;49.048;8.396;2023-03-14T12:05:59;1.10;;;0.90;;
16270;SDS011;8243;49.048;8.396;2023-03-14T12:08:42;0.93;;;0.93;;
16270;SDS011;8243;49.048;8.396;2023-03-14T12:11:10;1.07;;;0.90;;
16270;SDS011;8243;49.048;8.396;2023-03-14T12:13:41;1.23;;;1.10;;
16270;SDS011;8243;49.048;8.396;2023-03-14T12:18:50;2.87;;;1.17;;
16270;SDS011;8243;49.048;8.396;2023-03-14T12:21:17;2.13;;;1.10;;
16270;SDS011;8243;49.048;8.396;2023-03-14T12:23:53;3.07;;;0.90;;
16270;SDS011;8243;49.048;8.396;2023-03-14T12:39:25;2.80;;;2.50;;
16270;SDS011;8243;49.048;8.396;2023-03-14T12:44:54;1.60;;;1.00;;
16270;SDS011;8243;49.048;8.396;2023-03-14T12:50:07;1.13;;;0.90;;
16270;SDS011;8243;49.048;8.396;2023-03-14T12:52:43;1.47;;;1.07;;
16270;SDS011;8243;49.048;8.396;2023-03-14T12:55:32;1.30;;;1.07;;
16270;SDS011;8243;49.048;8.396;2023-03-14T13:01:04;2.93;;;0.87;;
16270;SDS011;8243;49.048;8.396;2023-03-14T13:03:49;2.13;;;0.90;;
16270;SDS011;8243;49.048;8.396;2023-03-14T13:11:58;1.40;;;0.83;;
16270;SDS011;8243;49.048;8.396;2023-03-14T13:14:37;1.23;;;0.70;;
16270;SDS011;8243;49.048;8.396;2023-03-14T13:17:10;2.50;;;1.10;;
16270;SDS011;8243;49.048;8.396;2023-03-14T13:19:37;1.53;;;1.00;;
16270;SDS011;8243;49.048;8.396;2023-03-14T13:22:04;2.70;;;1.00;;
16270;SDS011;8243;49.048;8.396;2023-03-14T13:24:40;1.00;;;0.70;;
16270;SDS011;8243;49.048;8.396;2023-03-14T13:27:08;1.50;;;0.57;;
16270;SDS011;8243;49.048;8.396;2023-03-14T13:29:50;1.27;;;0.80;;
16270;SDS011;8243;49.048;8.396;2023-03-14T13:32:17;0.80;;;0.70;;
16270;SDS011;8243;49.048;8.396;2023-03-14T13:34:51;2.80;;;0.90;;
16270;SDS011;8243;49.048;8.396;2023-03-14T13:37:21;1.83;;;0.90;;
16270;SDS011;8243;49.048;8.396;2023-03-14T13:39:49;1.00;;;0.80;;
16270;SDS011;8243;49.048;8.396;2023-03-14T13:42:16;0.70;;;0.70;;
16270;SDS011;8243;49.048;8.396;2023-03-14T13:44:43;1.50;;;0.80;;
16270;SDS011;8243;49.048;8.396;2023-03-14T13:47:23;1.93;;;0.80;;
16270;SDS011;8243;49.048;8.396;2023-03-14T13:49:51;0.57;;;0.50;;
16270;SDS011;8243;49.048;8.396;2023-03-14T13:52:28;1.40;;;0.70;;
16270;SDS011;8243;49.048;8.396;2023-03-14T13:54:56;1.23;;;0.53;;
16270;SDS011;8243;49.048;8.396;2023-03-14T13:57:22;0.93;;;0.73;;
16270;SDS011;8243;49.048;8.396;2023-03-14T13:59:58;1.70;;;0.90;;
16270;SDS011;8243;49.048;8.396;2023-03-14T14:02:31;3.20;;;0.90;;
16270;SDS011;8243;49.048;8.396;2023-03-14T14:04:58;3.13;;;0.77;;
16270;SDS011;8243;49.048;8.396;2023-03-14T14:07:25;3.10;;;0.83;;
16270;SDS011;8243;49.048;8.396;2023-03-14T14:09:51;2.17;;;1.00;;
16270;SDS011;8243;49.048;8.396;2023-03-14T14:12:32;1.47;;;0.87;;
16270;SDS011;8243;49.048;8.396;2023-03-14T14:15:09;3.43;;;0.97;;
16270;SDS011;8243;49.048;8.396;2023-03-14T14:17:38;0.77;;;0.77;;
16270;SDS011;8243;49.048;8.396;2023-03-14T14:20:10;3.20;;;1.07;;
16270;SDS011;8243;49.048;8.396;2023-03-14T14:22:43;1.53;;;1.00;;
16270;SDS011;8243;49.048;8.396;2023-03-14T14:25:12;1.63;;;1.27;;
16270;SDS011;8243;49.048;8.396;2023-03-14T14:27:41;2.90;;;1.20;;
16270;SDS011;8243;49.048;8.396;2023-03-14T14:32:46;2.03;;;0.80;;
16270;SDS011;8243;49.048;8.396;2023-03-14T14:38:20;1.77;;;0.90;;
16270;SDS011;8243;49.048;8.396;2023-03-14T14:40:59;1.97;;;1.00;;
16270;SDS011;8243;49.048;8.396;2023-03-14T14:43:27;1.57;;;0.80;;
16270;SDS011;8243;49.048;8.396;2023-03-14T14:45:55;1.33;;;0.77;;
16270;SDS011;8243;49.048;8.396;2023-03-14T14:48:23;2.67;;;1.00;;
16270;SDS011;8243;49.048;8.396;2023-03-14T14:50:58;2.30;;;1.10;;
16270;SDS011;8243;49.048;8.396;2023-03-14T14:53:27;2.77;;;1.10;;
16270;SDS011;8243;49.048;8.396;2023-03-14T14:56:17;2.73;;;1.00;;
16270;SDS011;8243;49.048;8.396;2023-03-14T14:58:47;5.10;;;1.10;;
16270;SDS011;8243;49.048;8.396;2023-03-14T15:01:17;4.13;;;1.20;;
16270;SDS011;8243;49.048;8.396;2023-03-14T15:03:47;2.67;;;1.00;;
16270;SDS011;8243;49.048;8.396;2023-03-14T15:06:15;4.67;;;1.03;;
16270;SDS011;8243;49.048;8.396;2023-03-14T15:08:48;1.30;;;0.90;;
16270;SDS011;8243;49.048;8.396;2023-03-14T15:11:15;3.53;;;1.10;;
16270;SDS011;8243;49.048;8.396;2023-03-14T15:13:44;2.50;;;1.33;;
16270;SDS011;8243;49.048;8.396;2023-03-14T15:16:10;2.17;;;1.27;;
16270;SDS011;8243;49.048;8.396;2023-03-14T15:18:37;8.27;;;1.97;;
16270;SDS011;8243;49.048;8.396;2023-03-14T15:21:02;4.37;;;1.37;;
16270;SDS011;8243;49.048;8.396;2023-03-14T15:23:29;4.07;;;1.30;;
16270;SDS011;8243;49.048;8.396;2023-03-14T15:25:55;2.83;;;1.30;;
16270;SDS011;8243;49.048;8.396;2023-03-14T15:28:22;5.83;;;1.53;;
16270;SDS011;8243;49.048;8.396;2023-03-14T15:30:50;3.17;;;1.27;;
16270;SDS011;8243;49.048;8.396;2023-03-14T15:33:18;5.93;;;1.20;;
16270;SDS011;8243;49.048;8.396;2023-03-14T15:35:43;5.33;;;1.67;;
16270;SDS011;8243;49.048;8.396;2023-03-14T15:38:11;6.90;;;1.60;;
16270;SDS011;8243;49.048;8.396;2023-03-14T15:40:37;5.63;;;1.67;;
16270;SDS011;8243;49.048;8.396;2023-03-14T15:43:03;5.00;;;2.10;;
16270;SDS011;8243;49.048;8.396;2023-03-14T15:45:29;6.07;;;1.80;;
16270;SDS011;8243;49.048;8.396;2023-03-14T15:47:55;5.47;;;1.50;;
16270;SDS011;8243;49.048;8.396;2023-03-14T15:50:20;6.23;;;1.50;;
16270;SDS011;8243;49.048;8.396;2023-03-14T15:52:52;2.87;;;1.43;;
16270;SDS011;8243;49.048;8.396;2023-03-14T15:55:19;4.50;;;1.30;;
16270;SDS011;8243;49.048;8.396;2023-03-14T15:57:44;2.63;;;1.50;;
16270;SDS011;8243;49.048;8.396;2023-03-14T16:00:14;3.07;;;1.53;;
16270;SDS011;8243;49.048;8.396;2023-03-14T16:02:46;5.23;;;1.73;;
16270;SDS011;8243;49.048;8.396;2023-03-14T16:05:12;1.87;;;1.17;;
16270;SDS011;8243;49.048;8.396;2023-03-14T16:07:38;4.20;;;1.23;;
16270;SDS011;8243;49.048;8.396;2023-03-14T16:10:04;3.73;;;1.33;;
16270;SDS011;8243;49.048;8.396;2023-03-14T16:12:31;6.53;;;1.30;;
16270;SDS011;8243;49.048;8.396;2023-03-14T16:14:58;2.27;;;0.97;;
16270;SDS011;8243;49.048;8.396;2023-03-14T16:17:23;4.77;;;1.30;;
16270;SDS011;8243;49.048;8.396;2023-03-14T16:19:49;6.53;;;1.83;;
16270;SDS011;8243;49.048;8.396;2023-03-14T16:22:15;1.93;;;1.20;;
16270;SDS011;8243;49.048;8.396;2023-03-14T16:24:40;3.07;;;1.13;;
16270;SDS011;8243;49.048;8.396;2023-03-14T16:27:06;4.67;;;1.67;;
16270;SDS011;8243;49.048;8.396;2023-03-14T16:29:32;4.13;;;1.50;;
16270;SDS011;8243;49.048;8.396;2023-03-14T16:31:57;2.57;;;1.30;;
16270;SDS011;8243;49.048;8.396;2023-03-14T16:34:23;3.13;;;1.30;;
16270;SDS011;8243;49.048;8.396;2023-03-14T16:36:48;4.20;;;1.10;;
16270;SDS011;8243;49.048;8.396;2023-03-14T16:39:16;2.87;;;1.10;;
16270;SDS011;8243;49.048;8.396;2023-03-14T16:41:42;2.10;;;1.13;;
16270;SDS011;8243;49.048;8.396;2023-03-14T16:44:08;2.93;;;1.30;;